sensor_id;sensor_type;location;lat;lon;timestamp;P1;durP1;ratioP1;P2;durP2;ratioP2
40116;SDS011;25829;50.228;18.936;2023-12-20T00:01:24;6.50;;;5.20;;
40116;SDS011;25829;50.228;18.936;2023-12-20T00:04:25;6.67;;;4.93;;
40116;SDS011;25829;50.228;18.936;2023-12-20T00:07:26;7.43;;;4.70;;
40116;SDS011;25829;50.228;18.936;2023-12-20T00:10:27;7.60;;;4.60;;
40116;SDS011;25829;50.228;18.936;2023-12-20T00:13:27;7.27;;;4.53;;
40116;SDS011;25829;50.228;18.936;2023-12-20T00:16:28;6.37;;;4.77;;
40116;SDS011;25829;50.228;18.936;2023-12-20T00:19:29;7.77;;;4.90;;
40116;SDS011;25829;50.228;18.936;2023-12-20T00:22:30;6.17;;;5.00;;
40116;SDS011;25829;50.228;18.936;2023-12-20T00:25:30;6.17;;;5.00;;
40116;SDS011;25829;50.228;18.936;2023-12-20T00:28:31;5.87;;;4.60;;
40116;SDS011;25829;50.228;18.936;2023-12-20T00:31:32;5.10;;;4.57;;
40116;SDS011;25829;50.228;18.936;2023-12-20T00:34:33;8.27;;;4.43;;
40116;SDS011;25829;50.228;18.936;2023-12-20T00:37:34;5.23;;;4.40;;
40116;SDS011;25829;50.228;18.936;2023-12-20T00:40:34;4.97;;;4.33;;
40116;SDS011;25829;50.228;18.936;2023-12-20T00:43:35;5.00;;;4.30;;
40116;SDS011;25829;50.228;18.936;2023-12-20T00:46:36;7.97;;;4.27;;
40116;SDS011;25829;50.228;18.936;2023-12-20T00:49:37;7.17;;;4.00;;
40116;SDS011;25829;50.228;18.936;2023-12-20T00:52:37;4.23;;;3.83;;
40116;SDS011;25829;50.228;18.936;2023-12-20T00:55:38;5.97;;;4.53;;
40116;SDS011;25829;50.228;18.936;2023-12-20T00:58:39;5.17;;;4.03;;
40116;SDS011;25829;50.228;18.936;2023-12-20T01:01:39;4.63;;;3.70;;
40116;SDS011;25829;50.228;18.936;2023-12-20T01:04:40;4.30;;;3.83;;
40116;SDS011;25829;50.228;18.936;2023-12-20T01:07:41;5.93;;;4.13;;
40116;SDS011;25829;50.228;18.936;2023-12-20T01:10:42;5.97;;;4.90;;
40116;SDS011;25829;50.228;18.936;2023-12-20T01:13:43;5.60;;;4.13;;
40116;SDS011;25829;50.228;18.936;2023-12-20T01:16:44;5.47;;;3.90;;
40116;SDS011;25829;50.228;18.936;2023-12-20T01:19:44;5.07;;;4.17;;
40116;SDS011;25829;50.228;18.936;2023-12-20T01:22:45;4.87;;;3.47;;
40116;SDS011;25829;50.228;18.936;2023-12-20T01:25:46;4.83;;;3.87;;
40116;SDS011;25829;50.228;18.936;2023-12-20T01:28:47;4.67;;;4.03;;
40116;SDS011;25829;50.228;18.936;2023-12-20T01:31:48;7.23;;;4.63;;
40116;SDS011;25829;50.228;18.936;2023-12-20T01:34:49;6.77;;;3.93;;
40116;SDS011;25829;50.228;18.936;2023-12-20T01:37:50;5.37;;;4.30;;
40116;SDS011;25829;50.228;18.936;2023-12-20T01:40:51;4.90;;;4.17;;
40116;SDS011;25829;50.228;18.936;2023-12-20T01:43:52;5.63;;;4.13;;
40116;SDS011;25829;50.228;18.936;2023-12-20T01:46:53;6.43;;;4.40;;
40116;SDS011;25829;50.228;18.936;2023-12-20T01:49:54;4.77;;;3.73;;
40116;SDS011;25829;50.228;18.936;2023-12-20T01:52:57;5.80;;;4.33;;
40116;SDS011;25829;50.228;18.936;2023-12-20T01:56:01;7.03;;;4.10;;
40116;SDS011;25829;50.228;18.936;2023-12-20T01:59:02;9.40;;;4.37;;
40116;SDS011;25829;50.228;18.936;2023-12-20T02:02:04;6.63;;;4.50;;
40116;SDS011;25829;50.228;18.936;2023-12-20T02:05:06;5.73;;;4.47;;
40116;SDS011;25829;50.228;18.936;2023-12-20T02:08:07;6.70;;;5.00;;
40116;SDS011;25829;50.228;18.936;2023-12-20T02:11:08;6.93;;;4.60;;
40116;SDS011;25829;50.228;18.936;2023-12-20T02:14:10;6.43;;;4.40;;
40116;SDS011;25829;50.228;18.936;2023-12-20T02:17:11;5.60;;;4.50;;
40116;SDS011;25829;50.228;18.936;2023-12-20T02:20:12;5.63;;;4.40;;
40116;SDS011;25829;50.228;18.936;2023-12-20T02:23:13;5.33;;;3.97;;
40116;SDS011;25829;50.228;18.936;2023-12-20T02:26:14;6.13;;;5.00;;
40116;SDS011;25829;50.228;18.936;2023-12-20T02:29:15;5.23;;;4.73;;
40116;SDS011;25829;50.228;18.936;2023-12-20T02:32:18;5.53;;;4.47;;
40116;SDS011;25829;50.228;18.936;2023-12-20T02:35:20;5.93;;;5.00;;
40116;SDS011;25829;50.228;18.936;2023-12-20T02:38:21;6.10;;;4.57;;
40116;SDS011;25829;50.228;18.936;2023-12-20T02:41:22;6.07;;;4.70;;
40116;SDS011;25829;50.228;18.936;2023-12-20T02:48:14;6.60;;;4.97;;
40116;SDS011;25829;50.228;18.936;2023-12-20T02:51:15;5.60;;;4.30;;
40116;SDS011;25829;50.228;18.936;2023-12-20T02:54:16;6.60;;;4.73;;
40116;SDS011;25829;50.228;18.936;2023-12-20T02:57:16;6.90;;;4.93;;
40116;SDS011;25829;50.228;18.936;2023-12-20T03:00:17;8.40;;;5.70;;
40116;SDS011;25829;50.228;18.936;2023-12-20T03:03:18;12.17;;;7.13;;
40116;SDS011;25829;50.228;18.936;2023-12-20T03:06:18;8.40;;;5.43;;
40116;SDS011;25829;50.228;18.936;2023-12-20T03:09:19;9.30;;;5.33;;
40116;SDS011;25829;50.228;18.936;2023-12-20T03:12:20;8.23;;;5.90;;
40116;SDS011;25829;50.228;18.936;2023-12-20T03:15:21;6.93;;;5.07;;
40116;SDS011;25829;50.228;18.936;2023-12-20T03:18:21;8.23;;;5.07;;
40116;SDS011;25829;50.228;18.936;2023-12-20T03:21:22;5.90;;;5.00;;
40116;SDS011;25829;50.228;18.936;2023-12-20T03:24:23;6.23;;;4.87;;
40116;SDS011;25829;50.228;18.936;2023-12-20T03:27:23;12.23;;;7.13;;
40116;SDS011;25829;50.228;18.936;2023-12-20T03:30:24;9.97;;;5.83;;
40116;SDS011;25829;50.228;18.936;2023-12-20T03:33:25;10.17;;;6.37;;
40116;SDS011;25829;50.228;18.936;2023-12-20T03:36:25;10.63;;;6.10;;
40116;SDS011;25829;50.228;18.936;2023-12-20T03:39:26;8.17;;;5.23;;
40116;SDS011;25829;50.228;18.936;2023-12-20T03:42:27;8.37;;;6.30;;
40116;SDS011;25829;50.228;18.936;2023-12-20T03:45:28;10.87;;;7.43;;
40116;SDS011;25829;50.228;18.936;2023-12-20T03:48:28;13.57;;;8.90;;
40116;SDS011;25829;50.228;18.936;2023-12-20T03:51:30;11.07;;;7.17;;
40116;SDS011;25829;50.228;18.936;2023-12-20T03:54:30;7.53;;;5.97;;
40116;SDS011;25829;50.228;18.936;2023-12-20T03:57:31;9.03;;;5.97;;
40116;SDS011;25829;50.228;18.936;2023-12-20T04:00:32;7.97;;;6.17;;
40116;SDS011;25829;50.228;18.936;2023-12-20T04:03:33;7.97;;;6.87;;
40116;SDS011;25829;50.228;18.936;2023-12-20T04:06:33;10.07;;;6.23;;
40116;SDS011;25829;50.228;18.936;2023-12-20T04:09:34;7.20;;;6.50;;
40116;SDS011;25829;50.228;18.936;2023-12-20T04:12:35;7.43;;;6.20;;
40116;SDS011;25829;50.228;18.936;2023-12-20T04:15:36;7.00;;;5.90;;
40116;SDS011;25829;50.228;18.936;2023-12-20T04:18:36;7.93;;;6.80;;
40116;SDS011;25829;50.228;18.936;2023-12-20T04:21:37;8.13;;;6.80;;
40116;SDS011;25829;50.228;18.936;2023-12-20T04:24:38;9.00;;;7.00;;
40116;SDS011;25829;50.228;18.936;2023-12-20T04:27:39;7.83;;;6.83;;
40116;SDS011;25829;50.228;18.936;2023-12-20T04:30:39;10.23;;;6.87;;
40116;SDS011;25829;50.228;18.936;2023-12-20T04:33:40;9.50;;;7.03;;
40116;SDS011;25829;50.228;18.936;2023-12-20T04:36:41;11.73;;;7.93;;
40116;SDS011;25829;50.228;18.936;2023-12-20T04:39:41;11.47;;;7.70;;
40116;SDS011;25829;50.228;18.936;2023-12-20T04:42:42;10.83;;;7.43;;
40116;SDS011;25829;50.228;18.936;2023-12-20T04:45:43;11.07;;;7.27;;
40116;SDS011;25829;50.228;18.936;2023-12-20T04:48:44;8.23;;;6.60;;
40116;SDS011;25829;50.228;18.936;2023-12-20T04:51:44;8.10;;;6.63;;
40116;SDS011;25829;50.228;18.936;2023-12-20T04:54:45;8.43;;;6.27;;
40116;SDS011;25829;50.228;18.936;2023-12-20T04:57:46;7.20;;;5.93;;
40116;SDS011;25829;50.228;18.936;2023-12-20T05:00:46;9.53;;;6.23;;
40116;SDS011;25829;50.228;18.936;2023-12-20T05:03:47;6.83;;;6.00;;
40116;SDS011;25829;50.228;18.936;2023-12-20T05:06:48;7.70;;;6.37;;
40116;SDS011;25829;50.228;18.936;2023-12-20T05:09:50;8.00;;;6.40;;
40116;SDS011;25829;50.228;18.936;2023-12-20T05:12:51;9.07;;;5.90;;
40116;SDS011;25829;50.228;18.936;2023-12-20T05:15:51;8.77;;;6.43;;
40116;SDS011;25829;50.228;18.936;2023-12-20T05:18:52;9.10;;;6.23;;
40116;SDS011;25829;50.228;18.936;2023-12-20T05:21:53;7.47;;;5.63;;
40116;SDS011;25829;50.228;18.936;2023-12-20T05:24:53;8.53;;;6.27;;
40116;SDS011;25829;50.228;18.936;2023-12-20T05:27:54;9.83;;;7.13;;
40116;SDS011;25829;50.228;18.936;2023-12-20T05:30:56;8.13;;;6.50;;
40116;SDS011;25829;50.228;18.936;2023-12-20T05:33:57;7.40;;;6.60;;
40116;SDS011;25829;50.228;18.936;2023-12-20T05:36:57;8.57;;;6.63;;
40116;SDS011;25829;50.228;18.936;2023-12-20T05:39:58;9.67;;;6.57;;
40116;SDS011;25829;50.228;18.936;2023-12-20T05:42:59;9.70;;;6.77;;
40116;SDS011;25829;50.228;18.936;2023-12-20T05:46:00;9.33;;;6.77;;
40116;SDS011;25829;50.228;18.936;2023-12-20T05:49:00;9.57;;;7.33;;
40116;SDS011;25829;50.228;18.936;2023-12-20T05:52:01;10.40;;;7.10;;
40116;SDS011;25829;50.228;18.936;2023-12-20T05:55:02;10.53;;;7.30;;
40116;SDS011;25829;50.228;18.936;2023-12-20T05:58:03;11.63;;;7.80;;
40116;SDS011;25829;50.228;18.936;2023-12-20T06:01:05;10.83;;;7.60;;
40116;SDS011;25829;50.228;18.936;2023-12-20T06:04:06;9.37;;;7.53;;
40116;SDS011;25829;50.228;18.936;2023-12-20T06:07:06;10.07;;;7.37;;
40116;SDS011;25829;50.228;18.936;2023-12-20T06:10:07;8.80;;;7.47;;
40116;SDS011;25829;50.228;18.936;2023-12-20T06:13:08;10.17;;;7.53;;
40116;SDS011;25829;50.228;18.936;2023-12-20T06:16:09;8.83;;;7.13;;
40116;SDS011;25829;50.228;18.936;2023-12-20T06:19:09;9.27;;;7.63;;
40116;SDS011;25829;50.228;18.936;2023-12-20T06:22:10;10.47;;;7.23;;
40116;SDS011;25829;50.228;18.936;2023-12-20T06:25:11;10.57;;;8.07;;
40116;SDS011;25829;50.228;18.936;2023-12-20T06:28:12;11.40;;;7.67;;
40116;SDS011;25829;50.228;18.936;2023-12-20T06:31:14;13.60;;;7.87;;
40116;SDS011;25829;50.228;18.936;2023-12-20T06:34:15;11.00;;;8.27;;
40116;SDS011;25829;50.228;18.936;2023-12-20T06:37:16;10.80;;;8.03;;
40116;SDS011;25829;50.228;18.936;2023-12-20T06:40:17;15.20;;;10.23;;
40116;SDS011;25829;50.228;18.936;2023-12-20T06:43:17;16.30;;;10.63;;
40116;SDS011;25829;50.228;18.936;2023-12-20T06:46:18;15.17;;;10.60;;
40116;SDS011;25829;50.228;18.936;2023-12-20T06:49:19;14.87;;;9.90;;
40116;SDS011;25829;50.228;18.936;2023-12-20T06:52:20;15.43;;;9.40;;
40116;SDS011;25829;50.228;18.936;2023-12-20T06:55:20;12.17;;;9.10;;
40116;SDS011;25829;50.228;18.936;2023-12-20T06:58:22;9.97;;;7.47;;
40116;SDS011;25829;50.228;18.936;2023-12-20T07:01:23;12.10;;;7.83;;
40116;SDS011;25829;50.228;18.936;2023-12-20T07:04:24;10.03;;;7.80;;
40116;SDS011;25829;50.228;18.936;2023-12-20T07:07:24;11.53;;;8.30;;
40116;SDS011;25829;50.228;18.936;2023-12-20T07:10:25;18.03;;;11.20;;
40116;SDS011;25829;50.228;18.936;2023-12-20T07:13:29;16.10;;;9.33;;
40116;SDS011;25829;50.228;18.936;2023-12-20T07:16:30;12.40;;;8.47;;
40116;SDS011;25829;50.228;18.936;2023-12-20T07:19:30;10.47;;;8.13;;
40116;SDS011;25829;50.228;18.936;2023-12-20T07:22:33;12.37;;;8.57;;
40116;SDS011;25829;50.228;18.936;2023-12-20T07:28:57;11.20;;;8.63;;
40116;SDS011;25829;50.228;18.936;2023-12-20T07:31:59;12.97;;;9.43;;
40116;SDS011;25829;50.228;18.936;2023-12-20T07:35:02;13.33;;;9.17;;
40116;SDS011;25829;50.228;18.936;2023-12-20T07:38:03;12.37;;;8.77;;
40116;SDS011;25829;50.228;18.936;2023-12-20T07:41:04;14.37;;;9.73;;
40116;SDS011;25829;50.228;18.936;2023-12-20T07:44:06;14.20;;;10.17;;
40116;SDS011;25829;50.228;18.936;2023-12-20T07:47:07;12.30;;;8.90;;
40116;SDS011;25829;50.228;18.936;2023-12-20T07:50:07;11.73;;;7.80;;
40116;SDS011;25829;50.228;18.936;2023-12-20T07:53:08;11.33;;;8.30;;
40116;SDS011;25829;50.228;18.936;2023-12-20T07:56:18;9.90;;;7.40;;
40116;SDS011;25829;50.228;18.936;2023-12-20T07:59:20;11.00;;;7.83;;
40116;SDS011;25829;50.228;18.936;2023-12-20T08:02:20;10.97;;;8.50;;
40116;SDS011;25829;50.228;18.936;2023-12-20T08:05:21;10.60;;;8.00;;
40116;SDS011;25829;50.228;18.936;2023-12-20T08:08:22;9.50;;;7.37;;
40116;SDS011;25829;50.228;18.936;2023-12-20T08:11:23;9.20;;;7.23;;
40116;SDS011;25829;50.228;18.936;2023-12-20T08:14:24;10.57;;;7.63;;
40116;SDS011;25829;50.228;18.936;2023-12-20T08:17:24;11.80;;;8.50;;
40116;SDS011;25829;50.228;18.936;2023-12-20T08:20:25;9.30;;;7.83;;
40116;SDS011;25829;50.228;18.936;2023-12-20T08:23:26;14.57;;;8.83;;
40116;SDS011;25829;50.228;18.936;2023-12-20T08:26:27;10.90;;;8.43;;
40116;SDS011;25829;50.228;18.936;2023-12-20T08:29:27;11.77;;;8.23;;
40116;SDS011;25829;50.228;18.936;2023-12-20T08:32:28;15.63;;;8.37;;
40116;SDS011;25829;50.228;18.936;2023-12-20T08:35:29;10.17;;;7.90;;
40116;SDS011;25829;50.228;18.936;2023-12-20T08:38:30;9.77;;;7.63;;
40116;SDS011;25829;50.228;18.936;2023-12-20T08:41:31;10.07;;;7.93;;
40116;SDS011;25829;50.228;18.936;2023-12-20T08:44:32;11.63;;;7.40;;
40116;SDS011;25829;50.228;18.936;2023-12-20T08:47:33;11.67;;;7.70;;
40116;SDS011;25829;50.228;18.936;2023-12-20T08:50:33;11.43;;;8.37;;
40116;SDS011;25829;50.228;18.936;2023-12-20T08:53:35;9.90;;;7.80;;
40116;SDS011;25829;50.228;18.936;2023-12-20T08:56:36;12.20;;;8.10;;
40116;SDS011;25829;50.228;18.936;2023-12-20T08:59:37;11.17;;;7.77;;
40116;SDS011;25829;50.228;18.936;2023-12-20T09:02:38;10.47;;;7.23;;
40116;SDS011;25829;50.228;18.936;2023-12-20T09:05:39;12.30;;;7.87;;
40116;SDS011;25829;50.228;18.936;2023-12-20T09:08:39;10.37;;;7.60;;
40116;SDS011;25829;50.228;18.936;2023-12-20T09:11:40;10.00;;;7.60;;
40116;SDS011;25829;50.228;18.936;2023-12-20T09:14:41;14.53;;;9.37;;
40116;SDS011;25829;50.228;18.936;2023-12-20T09:17:42;10.47;;;7.70;;
40116;SDS011;25829;50.228;18.936;2023-12-20T09:20:44;14.30;;;9.60;;
40116;SDS011;25829;50.228;18.936;2023-12-20T09:23:44;10.63;;;8.60;;
40116;SDS011;25829;50.228;18.936;2023-12-20T09:26:45;10.40;;;8.07;;
40116;SDS011;25829;50.228;18.936;2023-12-20T09:29:46;9.37;;;8.10;;
40116;SDS011;25829;50.228;18.936;2023-12-20T09:32:48;12.40;;;8.77;;
40116;SDS011;25829;50.228;18.936;2023-12-20T09:35:49;11.70;;;9.40;;
40116;SDS011;25829;50.228;18.936;2023-12-20T09:38:50;11.57;;;8.83;;
40116;SDS011;25829;50.228;18.936;2023-12-20T09:42:01;18.77;;;11.67;;
40116;SDS011;25829;50.228;18.936;2023-12-20T09:45:03;12.00;;;9.40;;
40116;SDS011;25829;50.228;18.936;2023-12-20T09:48:09;12.40;;;9.00;;
40116;SDS011;25829;50.228;18.936;2023-12-20T09:51:11;10.30;;;8.67;;
40116;SDS011;25829;50.228;18.936;2023-12-20T09:54:16;11.40;;;8.80;;
40116;SDS011;25829;50.228;18.936;2023-12-20T09:57:18;13.27;;;9.90;;
40116;SDS011;25829;50.228;18.936;2023-12-20T10:00:19;10.67;;;9.10;;
40116;SDS011;25829;50.228;18.936;2023-12-20T10:03:22;16.13;;;10.43;;
40116;SDS011;25829;50.228;18.936;2023-12-20T10:06:25;14.50;;;10.80;;
40116;SDS011;25829;50.228;18.936;2023-12-20T10:09:26;15.80;;;11.60;;
40116;SDS011;25829;50.228;18.936;2023-12-20T10:12:29;19.43;;;11.93;;
40116;SDS011;25829;50.228;18.936;2023-12-20T10:15:30;20.27;;;12.47;;
40116;SDS011;25829;50.228;18.936;2023-12-20T10:18:31;17.17;;;11.50;;
40116;SDS011;25829;50.228;18.936;2023-12-20T10:21:32;13.53;;;10.80;;
40116;SDS011;25829;50.228;18.936;2023-12-20T10:24:33;14.93;;;10.87;;
40116;SDS011;25829;50.228;18.936;2023-12-20T10:27:34;15.40;;;11.17;;
40116;SDS011;25829;50.228;18.936;2023-12-20T10:30:35;13.40;;;10.60;;
40116;SDS011;25829;50.228;18.936;2023-12-20T10:33:36;14.17;;;11.17;;
40116;SDS011;25829;50.228;18.936;2023-12-20T10:36:36;15.67;;;11.63;;
40116;SDS011;25829;50.228;18.936;2023-12-20T10:39:37;14.63;;;11.90;;
40116;SDS011;25829;50.228;18.936;2023-12-20T10:42:39;16.53;;;11.60;;
40116;SDS011;25829;50.228;18.936;2023-12-20T10:45:44;17.60;;;12.10;;
40116;SDS011;25829;50.228;18.936;2023-12-20T10:48:45;16.53;;;11.60;;
40116;SDS011;25829;50.228;18.936;2023-12-20T10:51:47;16.20;;;10.73;;
40116;SDS011;25829;50.228;18.936;2023-12-20T10:54:49;14.77;;;10.73;;
40116;SDS011;25829;50.228;18.936;2023-12-20T10:57:54;16.73;;;11.67;;
40116;SDS011;25829;50.228;18.936;2023-12-20T11:01:02;13.43;;;9.83;;
40116;SDS011;25829;50.228;18.936;2023-12-20T11:04:04;13.70;;;10.43;;
40116;SDS011;25829;50.228;18.936;2023-12-20T11:10:41;12.60;;;9.30;;
40116;SDS011;25829;50.228;18.936;2023-12-20T11:13:54;14.87;;;10.53;;
40116;SDS011;25829;50.228;18.936;2023-12-20T11:17:05;13.27;;;9.37;;
40116;SDS011;25829;50.228;18.936;2023-12-20T11:20:08;14.73;;;10.80;;
40116;SDS011;25829;50.228;18.936;2023-12-20T11:23:11;14.73;;;10.30;;
40116;SDS011;25829;50.228;18.936;2023-12-20T11:26:15;16.67;;;11.40;;
40116;SDS011;25829;50.228;18.936;2023-12-20T11:29:30;16.03;;;11.17;;
40116;SDS011;25829;50.228;18.936;2023-12-20T11:32:35;16.73;;;11.07;;
40116;SDS011;25829;50.228;18.936;2023-12-20T11:35:37;16.33;;;11.03;;
40116;SDS011;25829;50.228;18.936;2023-12-20T11:38:49;16.30;;;10.10;;
40116;SDS011;25829;50.228;18.936;2023-12-20T11:41:56;13.90;;;10.20;;
40116;SDS011;25829;50.228;18.936;2023-12-20T11:45:01;15.80;;;10.50;;
40116;SDS011;25829;50.228;18.936;2023-12-20T11:48:03;14.33;;;9.97;;
40116;SDS011;25829;50.228;18.936;2023-12-20T11:51:11;15.30;;;10.60;;
40116;SDS011;25829;50.228;18.936;2023-12-20T11:54:13;11.60;;;9.07;;
40116;SDS011;25829;50.228;18.936;2023-12-20T11:57:15;12.47;;;9.47;;
40116;SDS011;25829;50.228;18.936;2023-12-20T12:00:16;11.10;;;8.30;;
40116;SDS011;25829;50.228;18.936;2023-12-20T12:03:21;12.20;;;8.53;;
40116;SDS011;25829;50.228;18.936;2023-12-20T12:06:22;12.53;;;8.70;;
40116;SDS011;25829;50.228;18.936;2023-12-20T12:09:22;9.03;;;6.67;;
40116;SDS011;25829;50.228;18.936;2023-12-20T12:12:23;9.60;;;7.37;;
40116;SDS011;25829;50.228;18.936;2023-12-20T12:15:27;11.97;;;8.13;;
40116;SDS011;25829;50.228;18.936;2023-12-20T12:18:27;12.27;;;8.37;;
40116;SDS011;25829;50.228;18.936;2023-12-20T12:21:28;14.03;;;8.53;;
40116;SDS011;25829;50.228;18.936;2023-12-20T12:24:29;10.37;;;8.53;;
40116;SDS011;25829;50.228;18.936;2023-12-20T12:27:30;12.90;;;8.33;;
40116;SDS011;25829;50.228;18.936;2023-12-20T12:30:30;16.47;;;8.60;;
40116;SDS011;25829;50.228;18.936;2023-12-20T12:33:31;14.47;;;8.50;;
40116;SDS011;25829;50.228;18.936;2023-12-20T12:36:32;12.60;;;7.60;;
40116;SDS011;25829;50.228;18.936;2023-12-20T12:39:33;10.53;;;8.07;;
40116;SDS011;25829;50.228;18.936;2023-12-20T12:42:34;11.23;;;7.80;;
40116;SDS011;25829;50.228;18.936;2023-12-20T12:45:35;14.40;;;8.63;;
40116;SDS011;25829;50.228;18.936;2023-12-20T12:48:36;11.57;;;8.07;;
40116;SDS011;25829;50.228;18.936;2023-12-20T12:51:37;11.97;;;8.17;;
40116;SDS011;25829;50.228;18.936;2023-12-20T12:54:38;11.20;;;8.47;;
40116;SDS011;25829;50.228;18.936;2023-12-20T12:57:38;10.30;;;8.17;;
40116;SDS011;25829;50.228;18.936;2023-12-20T13:00:39;13.37;;;8.70;;
40116;SDS011;25829;50.228;18.936;2023-12-20T13:03:40;11.57;;;9.00;;
40116;SDS011;25829;50.228;18.936;2023-12-20T13:06:40;11.57;;;7.87;;
40116;SDS011;25829;50.228;18.936;2023-12-20T13:09:42;12.27;;;8.27;;
40116;SDS011;25829;50.228;18.936;2023-12-20T13:12:43;12.07;;;8.93;;
40116;SDS011;25829;50.228;18.936;2023-12-20T13:15:44;14.33;;;9.60;;
40116;SDS011;25829;50.228;18.936;2023-12-20T13:18:50;12.87;;;8.70;;
40116;SDS011;25829;50.228;18.936;2023-12-20T13:21:52;12.47;;;8.80;;
40116;SDS011;25829;50.228;18.936;2023-12-20T13:24:53;12.63;;;8.87;;
40116;SDS011;25829;50.228;18.936;2023-12-20T13:27:54;11.43;;;8.97;;
40116;SDS011;25829;50.228;18.936;2023-12-20T13:30:55;12.17;;;8.47;;
40116;SDS011;25829;50.228;18.936;2023-12-20T13:33:55;12.13;;;8.63;;
40116;SDS011;25829;50.228;18.936;2023-12-20T13:36:56;12.00;;;8.67;;
40116;SDS011;25829;50.228;18.936;2023-12-20T13:39:57;12.87;;;8.50;;
40116;SDS011;25829;50.228;18.936;2023-12-20T13:42:58;12.63;;;8.37;;
40116;SDS011;25829;50.228;18.936;2023-12-20T13:45:59;15.80;;;9.27;;
40116;SDS011;25829;50.228;18.936;2023-12-20T13:49:00;14.13;;;9.77;;
40116;SDS011;25829;50.228;18.936;2023-12-20T13:52:02;12.43;;;10.00;;
40116;SDS011;25829;50.228;18.936;2023-12-20T13:55:04;15.00;;;10.17;;
40116;SDS011;25829;50.228;18.936;2023-12-20T13:58:07;14.37;;;9.90;;
40116;SDS011;25829;50.228;18.936;2023-12-20T14:01:10;16.87;;;10.47;;
40116;SDS011;25829;50.228;18.936;2023-12-20T14:04:11;15.40;;;11.17;;
40116;SDS011;25829;50.228;18.936;2023-12-20T14:07:12;15.43;;;10.90;;
40116;SDS011;25829;50.228;18.936;2023-12-20T14:10:13;13.93;;;9.90;;
40116;SDS011;25829;50.228;18.936;2023-12-20T14:13:14;14.47;;;9.60;;
40116;SDS011;25829;50.228;18.936;2023-12-20T14:16:15;11.30;;;8.83;;
40116;SDS011;25829;50.228;18.936;2023-12-20T14:19:17;13.13;;;9.70;;
40116;SDS011;25829;50.228;18.936;2023-12-20T14:22:18;13.83;;;9.70;;
40116;SDS011;25829;50.228;18.936;2023-12-20T14:25:18;12.67;;;8.63;;
40116;SDS011;25829;50.228;18.936;2023-12-20T14:28:22;13.90;;;8.40;;
40116;SDS011;25829;50.228;18.936;2023-12-20T14:31:23;14.13;;;9.93;;
40116;SDS011;25829;50.228;18.936;2023-12-20T14:34:25;16.30;;;10.23;;
40116;SDS011;25829;50.228;18.936;2023-12-20T14:37:25;15.17;;;9.80;;
40116;SDS011;25829;50.228;18.936;2023-12-20T14:40:27;11.67;;;8.83;;
40116;SDS011;25829;50.228;18.936;2023-12-20T14:43:27;12.50;;;8.90;;
40116;SDS011;25829;50.228;18.936;2023-12-20T14:46:28;15.53;;;10.60;;
40116;SDS011;25829;50.228;18.936;2023-12-20T14:49:29;15.63;;;11.27;;
40116;SDS011;25829;50.228;18.936;2023-12-20T14:52:30;13.03;;;9.83;;
40116;SDS011;25829;50.228;18.936;2023-12-20T14:55:34;15.47;;;9.87;;
40116;SDS011;25829;50.228;18.936;2023-12-20T14:58:35;16.30;;;9.57;;
40116;SDS011;25829;50.228;18.936;2023-12-20T15:01:37;11.87;;;8.63;;
40116;SDS011;25829;50.228;18.936;2023-12-20T15:14:41;15.33;;;8.90;;
40116;SDS011;25829;50.228;18.936;2023-12-20T15:17:42;12.70;;;9.13;;
40116;SDS011;25829;50.228;18.936;2023-12-20T15:20:43;12.87;;;8.90;;
40116;SDS011;25829;50.228;18.936;2023-12-20T15:23:45;12.10;;;8.80;;
40116;SDS011;25829;50.228;18.936;2023-12-20T15:26:55;13.47;;;8.60;;
40116;SDS011;25829;50.228;18.936;2023-12-20T15:33:00;11.83;;;8.47;;
40116;SDS011;25829;50.228;18.936;2023-12-20T15:39:26;11.03;;;7.37;;
40116;SDS011;25829;50.228;18.936;2023-12-20T15:42:27;11.30;;;6.97;;
40116;SDS011;25829;50.228;18.936;2023-12-20T15:45:28;9.57;;;6.93;;
40116;SDS011;25829;50.228;18.936;2023-12-20T15:48:29;9.80;;;6.93;;
40116;SDS011;25829;50.228;18.936;2023-12-20T15:51:30;9.10;;;6.77;;
40116;SDS011;25829;50.228;18.936;2023-12-20T15:54:30;10.63;;;7.20;;
40116;SDS011;25829;50.228;18.936;2023-12-20T15:57:31;8.53;;;6.80;;
40116;SDS011;25829;50.228;18.936;2023-12-20T16:00:32;10.80;;;6.43;;
40116;SDS011;25829;50.228;18.936;2023-12-20T16:03:32;8.70;;;6.37;;
40116;SDS011;25829;50.228;18.936;2023-12-20T16:06:33;9.47;;;6.90;;
40116;SDS011;25829;50.228;18.936;2023-12-20T16:09:35;9.73;;;6.97;;
40116;SDS011;25829;50.228;18.936;2023-12-20T16:12:35;9.43;;;6.87;;
40116;SDS011;25829;50.228;18.936;2023-12-20T16:15:36;11.03;;;7.70;;
40116;SDS011;25829;50.228;18.936;2023-12-20T16:18:37;13.67;;;7.77;;
40116;SDS011;25829;50.228;18.936;2023-12-20T16:21:37;12.00;;;8.03;;
40116;SDS011;25829;50.228;18.936;2023-12-20T16:24:39;15.00;;;8.30;;
40116;SDS011;25829;50.228;18.936;2023-12-20T16:27:39;8.60;;;7.63;;
40116;SDS011;25829;50.228;18.936;2023-12-20T16:30:40;11.53;;;7.30;;
40116;SDS011;25829;50.228;18.936;2023-12-20T16:33:41;12.13;;;7.50;;
40116;SDS011;25829;50.228;18.936;2023-12-20T16:36:51;12.43;;;7.60;;
40116;SDS011;25829;50.228;18.936;2023-12-20T16:39:54;15.47;;;7.57;;
40116;SDS011;25829;50.228;18.936;2023-12-20T16:42:55;10.80;;;7.43;;
40116;SDS011;25829;50.228;18.936;2023-12-20T16:45:58;11.27;;;7.57;;
40116;SDS011;25829;50.228;18.936;2023-12-20T16:48:59;9.27;;;7.10;;
40116;SDS011;25829;50.228;18.936;2023-12-20T16:51:59;10.93;;;6.37;;
40116;SDS011;25829;50.228;18.936;2023-12-20T16:55:00;9.87;;;6.83;;
40116;SDS011;25829;50.228;18.936;2023-12-20T16:58:01;10.40;;;6.77;;
40116;SDS011;25829;50.228;18.936;2023-12-20T17:01:02;10.13;;;7.20;;
40116;SDS011;25829;50.228;18.936;2023-12-20T17:04:03;10.83;;;7.60;;
40116;SDS011;25829;50.228;18.936;2023-12-20T17:07:04;8.87;;;6.43;;
40116;SDS011;25829;50.228;18.936;2023-12-20T17:10:04;9.13;;;6.50;;
40116;SDS011;25829;50.228;18.936;2023-12-20T17:13:06;10.83;;;6.20;;
40116;SDS011;25829;50.228;18.936;2023-12-20T17:16:07;8.30;;;5.63;;
40116;SDS011;25829;50.228;18.936;2023-12-20T17:19:08;10.20;;;6.80;;
40116;SDS011;25829;50.228;18.936;2023-12-20T17:22:09;9.50;;;6.87;;
40116;SDS011;25829;50.228;18.936;2023-12-20T17:25:10;7.80;;;6.10;;
40116;SDS011;25829;50.228;18.936;2023-12-20T17:28:11;8.37;;;5.87;;
40116;SDS011;25829;50.228;18.936;2023-12-20T17:31:12;12.27;;;6.40;;
40116;SDS011;25829;50.228;18.936;2023-12-20T17:34:13;7.63;;;5.13;;
40116;SDS011;25829;50.228;18.936;2023-12-20T17:37:14;7.00;;;5.47;;
40116;SDS011;25829;50.228;18.936;2023-12-20T17:40:14;6.93;;;5.17;;
40116;SDS011;25829;50.228;18.936;2023-12-20T17:43:15;10.60;;;6.03;;
40116;SDS011;25829;50.228;18.936;2023-12-20T17:46:16;8.90;;;5.57;;
40116;SDS011;25829;50.228;18.936;2023-12-20T17:49:16;7.60;;;5.37;;
40116;SDS011;25829;50.228;18.936;2023-12-20T17:52:21;9.20;;;5.83;;
40116;SDS011;25829;50.228;18.936;2023-12-20T17:55:21;7.93;;;5.17;;
40116;SDS011;25829;50.228;18.936;2023-12-20T17:58:23;7.23;;;4.77;;
40116;SDS011;25829;50.228;18.936;2023-12-20T18:01:24;7.73;;;4.90;;
40116;SDS011;25829;50.228;18.936;2023-12-20T18:04:24;8.83;;;5.03;;
40116;SDS011;25829;50.228;18.936;2023-12-20T18:07:26;7.13;;;4.53;;
40116;SDS011;25829;50.228;18.936;2023-12-20T18:10:27;7.97;;;4.40;;
40116;SDS011;25829;50.228;18.936;2023-12-20T18:13:27;8.23;;;4.50;;